createdAt,value
2023-03-21T00:00:56.351Z,100.00
2023-03-21T00:03:26.088Z,100.00
2023-03-21T00:05:55.499Z,100.00
2023-03-21T00:08:27.107Z,100.00
2023-03-21T00:11:00.601Z,100.00
2023-03-21T00:13:32.669Z,100.00
2023-03-21T00:16:11.920Z,100.00
2023-03-21T00:18:52.477Z,100.00
2023-03-21T00:24:17.685Z,100.00
2023-03-21T00:26:46.708Z,100.00
2023-03-21T00:29:15.763Z,100.00
2023-03-21T00:31:46.137Z,100.00
2023-03-21T00:34:15.985Z,100.00
2023-03-21T00:36:45.682Z,100.00
2023-03-21T00:39:15.415Z,100.00
2023-03-21T00:41:44.446Z,100.00
2023-03-21T00:44:15.746Z,100.00
2023-03-21T00:47:00.865Z,100.00
2023-03-21T00:49:38.528Z,100.00
2023-03-21T00:52:18.718Z,100.00
2023-03-21T00:54:53.942Z,100.00
2023-03-21T00:57:37.484Z,100.00
2023-03-21T01:00:12.023Z,100.00
2023-03-21T01:03:02.715Z,100.00
2023-03-21T01:05:56.513Z,100.00
2023-03-21T01:08:31.127Z,100.00
2023-03-21T01:11:07.853Z,100.00
2023-03-21T01:13:40.899Z,100.00
2023-03-21T01:16:13.634Z,100.00
2023-03-21T01:18:44.872Z,100.00
2023-03-21T01:21:15.895Z,100.00
2023-03-21T01:23:46.252Z,100.00
2023-03-21T01:26:16.534Z,100.00
2023-03-21T01:28:47.320Z,100.00
2023-03-21T01:31:19.123Z,100.00
2023-03-21T01:33:49.564Z,100.00
2023-03-21T01:36:23.915Z,100.00
2023-03-21T01:38:56.196Z,100.00
2023-03-21T01:41:42.033Z,100.00
2023-03-21T01:44:20.734Z,100.00
2023-03-21T01:47:09.341Z,100.00
2023-03-21T01:49:46.320Z,100.00
2023-03-21T01:52:40.295Z,100.00
2023-03-21T01:55:16.154Z,100.00
2023-03-21T01:58:09.023Z,100.00
2023-03-21T02:01:11.760Z,100.00
2023-03-21T02:03:51.543Z,100.00
2023-03-21T02:06:43.835Z,100.00
2023-03-21T02:09:33.631Z,100.00
2023-03-21T02:12:04.534Z,100.00
2023-03-21T02:14:37.686Z,100.00
2023-03-21T02:17:23.902Z,100.00
2023-03-21T02:20:43.394Z,100.00
2023-03-21T02:24:08.614Z,100.00
2023-03-21T02:27:03.977Z,100.00
2023-03-21T02:30:35.434Z,100.00
2023-03-21T02:33:47.577Z,100.00
2023-03-21T02:36:29.102Z,100.00
2023-03-21T02:39:09.598Z,100.00
2023-03-21T02:41:50.067Z,100.00
2023-03-21T02:44:37.407Z,100.00
2023-03-21T02:47:13.052Z,100.00
2023-03-21T02:49:49.352Z,100.00
2023-03-21T02:52:37.272Z,100.00
2023-03-21T02:55:15.614Z,100.00
2023-03-21T02:58:13.394Z,100.00
2023-03-21T03:00:56.209Z,100.00
2023-03-21T03:03:38.958Z,100.00
2023-03-21T03:06:17.131Z,100.00
2023-03-21T03:09:05.829Z,100.00
2023-03-21T03:11:40.886Z,100.00
2023-03-21T03:14:56.469Z,100.00
2023-03-21T03:17:47.546Z,100.00
2023-03-21T03:20:29.450Z,100.00
2023-03-21T03:23:14.420Z,100.00
2023-03-21T03:25:50.339Z,100.00
2023-03-21T03:28:28.215Z,100.00
2023-03-21T03:31:09.171Z,100.00
2023-03-21T03:33:55.896Z,100.00
2023-03-21T03:36:33.147Z,100.00
2023-03-21T03:39:13.013Z,100.00
2023-03-21T03:42:07.920Z,100.00
2023-03-21T03:44:44.163Z,100.00
2023-03-21T03:47:32.391Z,100.00
2023-03-21T03:50:10.971Z,100.00
2023-03-21T03:52:55.555Z,100.00
2023-03-21T03:55:34.403Z,100.00
2023-03-21T03:58:21.742Z,100.00
2023-03-21T04:00:55.948Z,100.00
2023-03-21T04:03:25.529Z,100.00
2023-03-21T04:05:55.207Z,100.00
2023-03-21T04:08:24.350Z,100.00
2023-03-21T04:10:56.937Z,100.00
2023-03-21T04:13:26.687Z,100.00
2023-03-21T04:16:19.543Z,100.00
2023-03-21T04:18:49.176Z,100.00
2023-03-21T04:21:22.007Z,100.00
2023-03-21T04:23:50.970Z,100.00
2023-03-21T04:26:22.363Z,100.00
2023-03-21T04:29:11.239Z,100.00
2023-03-21T04:32:06.550Z,100.00
2023-03-21T04:34:40.332Z,100.00
2023-03-21T04:37:12.026Z,100.00
2023-03-21T04:39:42.994Z,100.00
2023-03-21T04:42:12.254Z,100.00
2023-03-21T04:44:43.256Z,100.00
2023-03-21T04:47:15.969Z,100.00
2023-03-21T04:49:45.791Z,100.00
2023-03-21T04:52:14.847Z,100.00
2023-03-21T04:54:43.898Z,100.00
2023-03-21T04:57:12.834Z,100.00
2023-03-21T04:59:42.816Z,100.00
2023-03-21T05:02:13.717Z,100.00
2023-03-21T05:04:42.917Z,100.00
2023-03-21T05:07:12.726Z,100.00
2023-03-21T05:09:41.836Z,100.00
2023-03-21T05:12:10.791Z,100.00
2023-03-21T05:14:39.777Z,100.00
2023-03-21T05:17:10.624Z,100.00
2023-03-21T05:19:43.644Z,100.00
2023-03-21T05:22:14.277Z,100.00
2023-03-21T05:24:43.465Z,100.00
2023-03-21T05:27:35.340Z,100.00
2023-03-21T05:30:13.819Z,100.00
2023-03-21T05:32:43.496Z,100.00
2023-03-21T05:35:15.660Z,100.00
2023-03-21T05:37:44.938Z,100.00
2023-03-21T05:40:14.780Z,100.00
2023-03-21T05:42:47.090Z,100.00
2023-03-21T05:45:23.088Z,100.00
2023-03-21T05:47:53.192Z,100.00
2023-03-21T05:50:26.983Z,100.00
2023-03-21T05:53:09.542Z,100.00
2023-03-21T05:55:39.404Z,100.00
2023-03-21T05:58:13.262Z,100.00
2023-03-21T06:00:46.752Z,100.00
2023-03-21T06:03:26.761Z,100.00
2023-03-21T06:06:03.546Z,100.00
2023-03-21T06:08:39.210Z,100.00
2023-03-21T06:11:21.866Z,100.00
2023-03-21T06:13:53.380Z,100.00
2023-03-21T06:16:24.839Z,100.00
2023-03-21T06:18:53.757Z,100.00
2023-03-21T06:21:39.454Z,100.00
2023-03-21T06:24:10.829Z,100.00
2023-03-21T06:26:42.866Z,100.00
2023-03-21T06:29:12.436Z,100.00
2023-03-21T06:31:44.995Z,100.00
2023-03-21T06:34:14.034Z,100.00
2023-03-21T06:36:46.713Z,100.00
2023-03-21T06:39:17.596Z,100.00
2023-03-21T06:41:47.653Z,100.00
2023-03-21T06:44:16.930Z,100.00
2023-03-21T06:46:55.064Z,100.00
2023-03-21T06:49:24.218Z,100.00
2023-03-21T06:51:54.776Z,100.00
2023-03-21T06:54:23.737Z,100.00
2023-03-21T06:57:02.759Z,100.00
2023-03-21T06:59:35.990Z,100.00
2023-03-21T07:02:25.988Z,100.00
2023-03-21T07:05:08.802Z,100.00
2023-03-21T07:07:40.176Z,100.00
2023-03-21T07:10:11.856Z,96.61
2023-03-21T07:12:56.606Z,93.24
2023-03-21T07:15:54.968Z,90.27
2023-03-21T07:18:24.327Z,88.84
2023-03-21T07:20:53.340Z,89.84
2023-03-21T07:23:25.916Z,89.81
2023-03-21T07:25:56.793Z,88.95
2023-03-21T07:28:26.389Z,89.67
2023-03-21T07:30:58.189Z,87.82
2023-03-21T07:33:28.129Z,86.16
2023-03-21T07:36:01.786Z,87.47
2023-03-21T07:38:32.706Z,85.92
2023-03-21T07:41:01.851Z,84.49
2023-03-21T07:43:35.356Z,83.98
2023-03-21T07:46:06.093Z,80.45
2023-03-21T07:48:35.516Z,79.46
2023-03-21T07:51:06.469Z,77.18
2023-03-21T07:53:39.287Z,76.72
2023-03-21T07:56:09.317Z,73.70
2023-03-21T07:58:38.205Z,75.46
2023-03-21T08:01:07.701Z,77.95
2023-03-21T08:03:38.124Z,76.05
2023-03-21T08:06:08.333Z,72.01
2023-03-21T08:08:38.858Z,73.95
2023-03-21T08:11:08.879Z,71.30
2023-03-21T08:13:37.934Z,69.21
2023-03-21T08:16:08.064Z,70.21
2023-03-21T08:18:36.981Z,69.47
2023-03-21T08:21:08.278Z,64.91
2023-03-21T08:23:39.885Z,65.81
2023-03-21T08:26:09.338Z,66.74
2023-03-21T08:28:39.538Z,63.24
2023-03-21T08:31:10.201Z,61.78
2023-03-21T08:33:39.336Z,61.58
2023-03-21T08:36:10.018Z,60.71
2023-03-21T08:38:40.638Z,58.64
2023-03-21T08:41:09.526Z,57.39
2023-03-21T08:43:38.482Z,59.73
2023-03-21T08:46:08.322Z,63.58
2023-03-21T08:48:38.827Z,56.21
2023-03-21T08:51:08.266Z,53.06
2023-03-21T08:53:37.183Z,51.95
2023-03-21T08:56:08.818Z,53.98
2023-03-21T08:58:37.790Z,51.19
2023-03-21T09:01:11.257Z,51.25
2023-03-21T09:03:40.166Z,49.47
2023-03-21T09:06:11.261Z,48.17
2023-03-21T09:08:41.908Z,47.46
2023-03-21T09:11:12.242Z,52.03
2023-03-21T09:13:41.432Z,49.26
2023-03-21T09:16:11.067Z,42.87
2023-03-21T09:18:47.344Z,42.31
2023-03-21T09:21:18.547Z,41.59
2023-03-21T09:23:48.722Z,43.69
2023-03-21T09:26:19.538Z,42.30
2023-03-21T09:28:49.168Z,40.12
2023-03-21T09:31:21.644Z,41.85
2023-03-21T09:33:51.239Z,43.33
2023-03-21T09:36:22.007Z,44.69
2023-03-21T09:38:51.084Z,40.42
2023-03-21T09:41:45.287Z,38.73
2023-03-21T09:44:41.263Z,38.49
2023-03-21T09:47:21.691Z,38.17
2023-03-21T09:50:07.521Z,38.48
2023-03-21T09:52:49.673Z,37.67
2023-03-21T09:55:22.608Z,36.47
2023-03-21T09:58:02.268Z,37.12
2023-03-21T10:00:39.779Z,36.63
2023-03-21T10:03:24.310Z,35.84
2023-03-21T10:05:57.504Z,36.91
2023-03-21T10:08:31.159Z,38.41
2023-03-21T10:11:05.189Z,39.45
2023-03-21T10:13:42.100Z,39.44
2023-03-21T10:16:16.450Z,40.51
2023-03-21T10:18:46.780Z,40.06
2023-03-21T10:21:51.494Z,39.86
2023-03-21T10:24:14.928Z,39.82
2023-03-21T10:26:46.503Z,39.50
2023-03-21T10:29:18.977Z,39.48
2023-03-21T10:31:49.324Z,39.66
2023-03-21T10:34:24.251Z,39.70
2023-03-21T10:36:53.431Z,38.41
2023-03-21T10:39:28.573Z,36.61
2023-03-21T10:41:57.595Z,35.86
2023-03-21T10:44:34.034Z,35.00
2023-03-21T10:47:08.442Z,34.22
2023-03-21T10:50:05.793Z,35.84
2023-03-21T10:52:32.287Z,35.71
2023-03-21T10:55:17.891Z,37.33
2023-03-21T10:57:47.849Z,37.58
2023-03-21T11:00:25.779Z,36.44
2023-03-21T11:02:55.311Z,36.84
2023-03-21T11:05:27.499Z,37.69
2023-03-21T11:08:02.990Z,36.82
2023-03-21T11:10:35.448Z,34.91
2023-03-21T11:13:09.733Z,34.18
2023-03-21T11:15:54.501Z,32.80
2023-03-21T11:18:26.237Z,32.38
2023-03-21T11:20:58.012Z,35.12
2023-03-21T11:23:31.608Z,33.66
2023-03-21T11:26:03.740Z,32.95
2023-03-21T11:31:09.814Z,33.84
2023-03-21T11:33:41.394Z,34.50
2023-03-21T11:36:38.970Z,34.34
2023-03-21T11:39:29.063Z,35.12
2023-03-21T11:41:57.970Z,36.71
2023-03-21T11:44:34.497Z,35.23
2023-03-21T11:47:04.876Z,33.78
2023-03-21T11:49:33.854Z,33.55
2023-03-21T11:52:18.503Z,32.70
2023-03-21T11:55:11.889Z,31.93
2023-03-21T11:57:48.991Z,32.80
2023-03-21T12:00:25.960Z,32.42
2023-03-21T12:03:48.794Z,34.73
2023-03-21T12:06:32.693Z,33.96
2023-03-21T12:09:18.649Z,33.96
2023-03-21T12:12:01.877Z,33.10
2023-03-21T12:14:42.780Z,34.13
2023-03-21T12:17:25.958Z,34.37
2023-03-21T12:20:31.211Z,33.15
2023-03-21T12:23:36.260Z,33.62
2023-03-21T12:26:23.167Z,32.82
2023-03-21T12:29:20.925Z,32.93
2023-03-21T12:32:08.739Z,34.23
2023-03-21T12:34:59.006Z,33.78
2023-03-21T12:37:40.554Z,33.53
2023-03-21T12:40:23.350Z,33.29
2023-03-21T12:43:25.548Z,34.21
2023-03-21T12:46:00.216Z,34.60
2023-03-21T12:48:42.807Z,33.42
2023-03-21T12:51:15.505Z,33.70
2023-03-21T12:54:03.462Z,33.08
2023-03-21T12:56:35.805Z,33.36
2023-03-21T12:59:17.395Z,33.01
2023-03-21T13:01:47.498Z,33.65
2023-03-21T13:04:47.098Z,32.50
2023-03-21T13:07:20.210Z,33.14
2023-03-21T13:09:51.332Z,32.71
2023-03-21T13:12:46.804Z,32.55
2023-03-21T13:16:00.427Z,33.00
2023-03-21T13:18:40.757Z,32.75
2023-03-21T13:21:17.897Z,33.05
2023-03-21T13:24:02.397Z,33.15
2023-03-21T13:26:40.780Z,31.73
2023-03-21T13:29:24.569Z,32.16
2023-03-21T13:31:57.418Z,32.14
2023-03-21T13:34:27.976Z,31.76
2023-03-21T13:37:00.751Z,29.98
2023-03-21T13:39:31.170Z,30.00
2023-03-21T13:42:07.155Z,28.19
2023-03-21T13:44:45.008Z,28.55
2023-03-21T13:47:39.775Z,28.47
2023-03-21T13:50:36.499Z,29.03
2023-03-21T13:53:24.781Z,27.83
2023-03-21T13:56:24.257Z,28.90
2023-03-21T13:59:01.402Z,25.91
2023-03-21T14:01:37.931Z,26.72
2023-03-21T14:04:15.535Z,23.73
2023-03-21T14:06:51.434Z,24.55
2023-03-21T14:09:30.259Z,26.15
2023-03-21T14:12:07.141Z,25.79
2023-03-21T14:14:41.446Z,24.37
2023-03-21T14:17:14.670Z,25.03
2023-03-21T14:19:43.760Z,24.25
2023-03-21T14:22:14.587Z,24.29
2023-03-21T14:24:50.829Z,19.76
2023-03-21T14:27:21.412Z,19.72
2023-03-21T14:29:53.422Z,21.22
2023-03-21T14:32:27.726Z,27.20
2023-03-21T14:34:57.654Z,28.58
2023-03-21T14:37:34.300Z,29.26
2023-03-21T14:40:09.216Z,30.35
2023-03-21T14:42:39.495Z,31.28
2023-03-21T14:45:21.858Z,32.65
2023-03-21T14:48:02.472Z,31.73
2023-03-21T14:50:40.232Z,31.85
2023-03-21T14:53:16.756Z,32.07
2023-03-21T14:55:48.083Z,32.51
2023-03-21T14:58:19.242Z,32.24
2023-03-21T15:00:52.118Z,32.23
2023-03-21T15:03:23.802Z,31.19
2023-03-21T15:05:52.769Z,31.66
2023-03-21T15:08:25.066Z,33.15
2023-03-21T15:11:06.978Z,33.46
2023-03-21T15:13:40.942Z,34.19
2023-03-21T15:16:14.812Z,34.63
2023-03-21T15:18:45.650Z,35.37
2023-03-21T15:21:22.221Z,35.32
2023-03-21T15:23:55.354Z,36.12
2023-03-21T15:26:27.358Z,36.56
2023-03-21T15:29:00.547Z,36.12
2023-03-21T15:31:36.132Z,36.86
2023-03-21T15:34:08.890Z,37.78
2023-03-21T15:36:44.993Z,37.75
2023-03-21T15:39:17.360Z,37.88
2023-03-21T15:42:02.793Z,37.86
2023-03-21T15:44:32.914Z,38.65
2023-03-21T15:47:03.669Z,38.77
2023-03-21T15:49:34.845Z,39.38
2023-03-21T15:52:08.345Z,39.09
2023-03-21T15:54:44.554Z,39.60
2023-03-21T15:57:24.433Z,39.78
2023-03-21T15:59:57.756Z,40.05
2023-03-21T16:02:31.825Z,40.35
2023-03-21T16:05:03.360Z,40.16
2023-03-21T16:07:35.864Z,40.62
2023-03-21T16:10:06.031Z,40.92
2023-03-21T16:12:35.293Z,41.49
2023-03-21T16:15:05.177Z,42.36
2023-03-21T16:17:37.965Z,41.99
2023-03-21T16:20:20.583Z,41.80
2023-03-21T16:22:49.975Z,42.72
2023-03-21T16:25:19.462Z,42.65
2023-03-21T16:27:49.162Z,43.46
2023-03-21T16:30:22.184Z,42.96
2023-03-21T16:32:53.077Z,44.02
2023-03-21T16:35:23.655Z,44.08
2023-03-21T16:37:52.863Z,43.17
2023-03-21T16:40:29.986Z,43.95
2023-03-21T16:42:59.199Z,44.56
2023-03-21T16:45:29.146Z,44.96
2023-03-21T16:48:00.758Z,44.13
2023-03-21T16:50:33.599Z,44.39
2023-03-21T16:53:03.244Z,45.25
2023-03-21T16:55:34.819Z,46.31
2023-03-21T16:58:03.928Z,46.65
2023-03-21T17:00:33.201Z,47.57
2023-03-21T17:03:13.658Z,48.36
2023-03-21T17:05:42.775Z,48.62
2023-03-21T17:08:18.429Z,49.20
2023-03-21T17:10:48.014Z,49.93
2023-03-21T17:13:17.109Z,49.75
2023-03-21T17:15:45.998Z,50.33
2023-03-21T17:18:16.412Z,50.69
2023-03-21T17:20:45.631Z,50.94
2023-03-21T17:23:14.531Z,51.54
2023-03-21T17:25:43.506Z,52.28
2023-03-21T17:28:13.200Z,53.20
2023-03-21T17:30:43.273Z,53.17
2023-03-21T17:33:13.095Z,53.40
2023-03-21T17:35:43.463Z,53.93
2023-03-21T17:38:18.015Z,54.67
2023-03-21T17:40:48.426Z,55.07
2023-03-21T17:43:21.666Z,55.57
2023-03-21T17:45:51.115Z,55.65
2023-03-21T17:48:20.664Z,56.80
2023-03-21T17:50:51.216Z,56.17
2023-03-21T17:53:20.230Z,56.22
2023-03-21T17:55:49.133Z,56.23
2023-03-21T17:58:18.112Z,55.95
2023-03-21T18:00:47.943Z,56.66
2023-03-21T18:03:18.678Z,56.70
2023-03-21T18:05:50.394Z,56.16
2023-03-21T18:08:19.418Z,56.82
2023-03-21T18:10:48.893Z,58.05
2023-03-21T18:13:17.854Z,57.80
2023-03-21T18:15:48.380Z,59.18
2023-03-21T18:18:18.031Z,59.60
2023-03-21T18:20:52.496Z,59.56
2023-03-21T18:23:23.912Z,60.10
2023-03-21T18:25:53.351Z,61.10
2023-03-21T18:28:23.103Z,60.89
2023-03-21T18:31:08.499Z,61.74
2023-03-21T18:33:41.337Z,62.13
2023-03-21T18:36:14.074Z,62.22
2023-03-21T18:38:44.953Z,64.95
2023-03-21T18:41:15.607Z,66.89
2023-03-21T18:44:02.695Z,67.17
2023-03-21T18:46:33.856Z,69.15
2023-03-21T18:49:33.514Z,69.52
2023-03-21T18:51:52.747Z,66.76
2023-03-21T18:54:23.507Z,66.68
2023-03-21T18:59:42.609Z,67.44
2023-03-21T19:02:15.223Z,68.84
2023-03-21T19:04:45.076Z,70.98
2023-03-21T19:07:14.913Z,71.73
2023-03-21T19:10:09.363Z,73.29
2023-03-21T19:12:36.082Z,73.08
2023-03-21T19:15:07.044Z,74.00
2023-03-21T19:20:25.770Z,70.68
2023-03-21T19:22:54.944Z,69.53
2023-03-21T19:25:26.066Z,71.39
2023-03-21T19:27:55.107Z,71.88
2023-03-21T19:30:24.162Z,74.70
2023-03-21T19:32:53.395Z,78.94
2023-03-21T19:35:26.290Z,80.87
2023-03-21T19:37:55.662Z,83.54
2023-03-21T19:40:27.518Z,85.34
2023-03-21T19:42:57.566Z,85.30
2023-03-21T19:45:27.547Z,87.36
2023-03-21T19:47:56.928Z,88.59
2023-03-21T19:50:57.850Z,89.31
2023-03-21T19:53:18.570Z,90.47
2023-03-21T19:55:54.406Z,90.29
2023-03-21T19:58:25.874Z,89.88
2023-03-21T20:00:55.099Z,91.42
2023-03-21T20:03:24.198Z,93.97
2023-03-21T20:05:53.412Z,97.28
2023-03-21T20:08:22.572Z,100.00
2023-03-21T20:10:53.038Z,100.00
2023-03-21T20:13:22.474Z,99.84
2023-03-21T20:15:55.299Z,100.00
2023-03-21T20:18:25.761Z,100.00
2023-03-21T20:20:56.799Z,99.30
2023-03-21T20:23:30.311Z,100.00
2023-03-21T20:26:01.316Z,100.00
2023-03-21T20:28:30.613Z,100.00
2023-03-21T20:31:00.761Z,100.00
2023-03-21T20:33:30.560Z,100.00
2023-03-21T20:38:53.076Z,100.00
2023-03-21T20:41:23.669Z,100.00
2023-03-21T20:46:43.789Z,100.00
2023-03-21T20:49:13.501Z,100.00
2023-03-21T20:54:32.448Z,100.00
2023-03-21T20:57:02.973Z,100.00
2023-03-21T20:59:33.589Z,100.00
2023-03-21T21:02:03.866Z,100.00
2023-03-21T21:05:17.185Z,100.00
2023-03-21T21:07:32.780Z,100.00
2023-03-21T21:10:01.898Z,100.00
2023-03-21T21:12:32.325Z,100.00
2023-03-21T21:15:02.003Z,100.00
2023-03-21T21:18:03.596Z,100.00
2023-03-21T21:20:23.159Z,100.00
2023-03-21T21:22:59.454Z,100.00
2023-03-21T21:25:34.943Z,100.00
2023-03-21T21:28:09.806Z,100.00
2023-03-21T21:30:41.415Z,100.00
2023-03-21T21:33:14.897Z,100.00
2023-03-21T21:35:47.819Z,100.00
2023-03-21T21:38:19.244Z,100.00
2023-03-21T21:40:49.731Z,100.00
2023-03-21T21:43:20.532Z,100.00
2023-03-21T21:45:50.861Z,100.00
2023-03-21T21:48:20.342Z,100.00
2023-03-21T21:50:54.256Z,100.00
2023-03-21T21:53:23.476Z,100.00
2023-03-21T21:55:52.334Z,100.00
2023-03-21T21:58:23.069Z,100.00
2023-03-21T22:00:52.529Z,100.00
2023-03-21T22:03:22.469Z,100.00
2023-03-21T22:05:54.549Z,100.00
2023-03-21T22:08:23.715Z,100.00
2023-03-21T22:10:52.943Z,100.00
2023-03-21T22:13:23.385Z,100.00
2023-03-21T22:15:52.552Z,100.00
2023-03-21T22:18:21.804Z,100.00
2023-03-21T22:20:52.468Z,100.00
2023-03-21T22:23:21.879Z,100.00
2023-03-21T22:25:52.576Z,100.00
2023-03-21T22:28:25.616Z,100.00
2023-03-21T22:30:55.109Z,100.00
2023-03-21T22:33:24.546Z,100.00
2023-03-21T22:35:54.344Z,100.00
2023-03-21T22:38:25.084Z,100.00
2023-03-21T22:40:57.418Z,100.00
2023-03-21T22:43:34.407Z,100.00
2023-03-21T22:46:04.614Z,100.00
2023-03-21T22:48:34.826Z,100.00
2023-03-21T22:51:03.747Z,100.00
2023-03-21T22:53:32.803Z,100.00
2023-03-21T22:56:01.724Z,100.00
2023-03-21T22:58:32.094Z,100.00
2023-03-21T23:01:05.302Z,100.00
2023-03-21T23:03:34.330Z,100.00
2023-03-21T23:06:03.831Z,100.00
2023-03-21T23:08:35.880Z,100.00
2023-03-21T23:11:08.242Z,100.00
2023-03-21T23:13:41.259Z,100.00
2023-03-21T23:16:10.907Z,100.00
2023-03-21T23:18:39.891Z,100.00
2023-03-21T23:21:13.235Z,100.00
2023-03-21T23:23:43.759Z,100.00
2023-03-21T23:26:12.855Z,100.00
2023-03-21T23:28:43.243Z,100.00
2023-03-21T23:31:16.643Z,100.00
2023-03-21T23:33:46.306Z,100.00
2023-03-21T23:36:17.075Z,100.00
2023-03-21T23:38:46.843Z,100.00
2023-03-21T23:41:19.017Z,100.00
2023-03-21T23:43:49.537Z,100.00
2023-03-21T23:46:19.970Z,100.00
2023-03-21T23:48:49.548Z,100.00
2023-03-21T23:51:19.762Z,100.00
2023-03-21T23:53:49.189Z,100.00
2023-03-21T23:56:21.954Z,100.00
2023-03-21T23:58:52.813Z,100.00
